Time;durP1;ratioP1;P1;durP2;ratioP2;P2;SDS_P1;SDS_P2;PMS_P1;PMS_P2;Temp;Humidity;BMP_temperature;BMP_pressure;BME280_temperature;BME280_humidity;BME280_pressure;Samples;Min_cycle;Max_cycle;Signal;HPM_P1;HPM_P2
2022/10/28 03:00:58;;;;;;;0.80;0.80;;;21.10;53.00;;;;;;5603577;23;46536;-68
2022/10/28 03:03:24;;;;;;;1.75;1.00;;;21.00;53.00;;;;;;4835909;29;45572;-67
2022/10/28 03:05:49;;;;;;;1.60;1.00;;;21.00;53.00;;;;;;4847105;29;46064;-67
2022/10/28 03:08:15;;;;;;;1.35;0.90;;;21.10;53.00;;;;;;4887576;29;45034;-67
2022/10/28 03:10:41;;;;;;;1.52;1.00;;;21.10;53.00;;;;;;4846269;29;45019;-67
2022/10/28 03:13:06;;;;;;;0.73;0.68;;;21.10;53.00;;;;;;4861855;29;45229;-67
2022/10/28 03:15:32;;;;;;;0.82;0.82;;;21.10;53.00;;;;;;4877103;29;46664;-65
2022/10/28 03:17:58;;;;;;;0.80;0.80;;;21.10;53.00;;;;;;4878918;29;46140;-68
2022/10/28 03:20:23;;;;;;;0.88;0.88;;;21.00;53.00;;;;;;4883769;29;46365;-68
2022/10/28 03:22:49;;;;;;;1.00;0.70;;;21.00;53.10;;;;;;4863441;29;45396;-68
2022/10/28 03:25:15;;;;;;;1.08;0.90;;;21.10;53.00;;;;;;4859001;29;45499;-69
2022/10/28 03:27:40;;;;;;;1.25;0.70;;;21.10;53.10;;;;;;4861429;29;45686;-65
2022/10/28 03:30:06;;;;;;;2.38;1.05;;;21.00;53.00;;;;;;4866545;29;45301;-69
2022/10/28 03:32:32;;;;;;;0.95;0.75;;;21.10;53.00;;;;;;4854534;29;45731;-68
2022/10/28 03:34:58;;;;;;;0.95;0.80;;;21.10;53.00;;;;;;4859696;29;46009;-67
2022/10/28 03:37:23;;;;;;;2.88;0.80;;;21.10;53.60;;;;;;4859639;29;45576;-66
2022/10/28 03:39:49;;;;;;;1.00;0.70;;;21.00;53.00;;;;;;4879219;29;45350;-68
2022/10/28 03:42:14;;;;;;;1.23;0.93;;;21.00;53.00;;;;;;4873453;29;45326;-68
2022/10/28 03:44:40;;;;;;;1.02;0.80;;;21.00;53.00;;;;;;4856640;29;45845;-70
2022/10/28 03:47:06;;;;;;;2.25;0.75;;;21.00;53.00;;;;;;4858476;29;45515;-66
2022/10/28 03:49:32;;;;;;;1.00;0.90;;;21.00;53.00;;;;;;4842278;29;45775;-68
2022/10/28 03:51:57;;;;;;;1.05;0.95;;;21.00;53.00;;;;;;4876411;29;45491;-71
2022/10/28 03:54:23;;;;;;;1.67;0.93;;;21.00;53.00;;;;;;4876152;29;45019;-67
2022/10/28 03:56:48;;;;;;;1.80;1.00;;;21.00;52.90;;;;;;4860754;29;45223;-67
2022/10/28 03:59:14;;;;;;;0.88;0.88;;;21.00;52.90;;;;;;4855109;29;46772;-67
2022/10/28 04:01:40;;;;;;;2.35;0.80;;;21.00;52.90;;;;;;4859709;29;45559;-67
2022/10/28 04:04:05;;;;;;;0.52;0.40;;;21.00;53.00;;;;;;4874412;29;45491;-67
2022/10/28 04:06:31;;;;;;;0.98;0.90;;;21.00;53.00;;;;;;4857657;29;45627;-69
2022/10/28 04:08:56;;;;;;;0.80;0.80;;;21.00;52.90;;;;;;4857993;29;45063;-69
2022/10/28 04:11:22;;;;;;;0.80;0.73;;;21.00;53.00;;;;;;4878024;29;45818;-70
2022/10/28 04:13:48;;;;;;;0.77;0.70;;;21.00;53.00;;;;;;4857393;29;46000;-70
2022/10/28 04:16:13;;;;;;;1.10;0.90;;;21.00;53.00;;;;;;4875001;29;45540;-68
2022/10/28 04:18:39;;;;;;;1.05;0.80;;;21.00;53.00;;;;;;4870889;29;45149;-67
2022/10/28 04:21:04;;;;;;;1.33;0.88;;;21.00;53.00;;;;;;4875684;29;45572;-68
2022/10/28 04:23:30;;;;;;;1.00;0.90;;;21.00;53.10;;;;;;4877953;29;45992;-66
2022/10/28 04:25:55;;;;;;;0.63;0.63;;;21.00;53.10;;;;;;4874655;29;45241;-70
2022/10/28 04:28:23;;;;;;;0.77;0.75;;;21.00;53.00;;;;;;4854634;29;45024;-68
2022/10/28 04:30:48;;;;;;;0.82;0.70;;;21.00;53.00;;;;;;4857141;29;45214;-66
2022/10/28 04:33:14;;;;;;;1.60;0.93;;;21.00;53.00;;;;;;4871901;29;46313;-68
2022/10/28 04:35:42;;;;;;;0.95;0.90;;;21.00;53.00;;;;;;4874741;29;45061;-70
2022/10/28 04:38:08;;;;;;;1.02;0.85;;;21.00;53.00;;;;;;4870705;29;45432;-65
2022/10/28 04:40:34;;;;;;;1.08;0.90;;;21.00;53.00;;;;;;4835440;29;44863;-67
2022/10/28 04:43:00;;;;;;;0.82;0.82;;;21.00;53.00;;;;;;4878808;29;47331;-69
2022/10/28 04:45:25;;;;;;;0.98;0.88;;;20.90;53.00;;;;;;4861364;29;45259;-68
2022/10/28 04:47:58;;;;;;;1.70;1.00;;;20.90;53.00;;;;;;4876491;29;45365;-67
2022/10/28 04:50:24;;;;;;;;;;;20.90;53.00;;;;;;4876341;29;45464;-68
2022/10/28 04:52:49;;;;;;;0.90;0.73;;;20.90;53.10;;;;;;4846437;29;46216;-67
2022/10/28 04:55:15;;;;;;;1.20;0.90;;;20.90;53.00;;;;;;4866072;29;45099;-70
2022/10/28 04:57:41;;;;;;;0.88;0.70;;;20.90;53.00;;;;;;4875219;29;45645;-69
2022/10/28 05:00:07;;;;;;;1.05;0.82;;;20.90;53.00;;;;;;4860779;29;45567;-66
2022/10/28 05:02:33;;;;;;;1.23;0.82;;;20.90;53.00;;;;;;4878003;29;46245;-67
2022/10/28 05:05:02;;;;;;;0.90;0.75;;;20.90;53.00;;;;;;4859223;29;44643;-67
2022/10/28 05:07:28;;;;;;;1.00;0.75;;;20.90;53.00;;;;;;4856847;29;45348;-69
2022/10/28 05:09:53;;;;;;;0.80;0.75;;;20.90;53.00;;;;;;4863209;29;45541;-70
2022/10/28 05:12:19;;;;;;;1.52;0.90;;;20.90;53.00;;;;;;4846160;29;45471;-67
2022/10/28 05:14:45;;;;;;;0.77;0.68;;;20.90;53.00;;;;;;4863230;29;45285;-65
2022/10/28 05:17:10;;;;;;;0.90;0.70;;;20.90;53.00;;;;;;4863491;29;45056;-67
2022/10/28 05:19:36;;;;;;;1.40;0.90;;;20.90;53.00;;;;;;4865974;29;45152;-70
2022/10/28 05:22:01;;;;;;;1.23;0.80;;;20.90;53.10;;;;;;4860821;29;45513;-68
2022/10/28 05:24:27;;;;;;;1.15;0.77;;;20.90;53.10;;;;;;4859292;29;44649;-67
2022/10/28 05:26:53;;;;;;;1.40;0.95;;;20.90;53.10;;;;;;4851564;29;45132;-68
2022/10/28 05:29:19;;;;;;;0.80;0.70;;;20.90;53.00;;;;;;4877354;29;45230;-71
2022/10/28 05:31:45;;;;;;;1.02;0.90;;;20.90;53.00;;;;;;4855488;29;47467;-69
2022/10/28 05:34:10;;;;;;;1.33;0.98;;;20.90;53.00;;;;;;4877030;29;45396;-69
2022/10/28 05:36:37;;;;;;;0.93;0.90;;;20.90;53.00;;;;;;4882120;29;45538;-64
2022/10/28 05:39:03;;;;;;;1.08;0.80;;;20.80;53.00;;;;;;4862129;29;45497;-68
2022/10/28 05:41:28;;;;;;;0.95;0.80;;;20.90;53.00;;;;;;4857422;29;45526;-69
2022/10/28 05:43:54;;;;;;;0.73;0.63;;;20.80;53.00;;;;;;4860437;29;45273;-68
2022/10/28 05:46:21;;;;;;;1.00;0.80;;;20.80;53.00;;;;;;4880443;29;44663;-67
2022/10/28 05:48:46;;;;;;;1.17;0.85;;;20.80;53.00;;;;;;4882032;29;45522;-65
2022/10/28 05:51:12;;;;;;;0.82;0.73;;;20.80;53.00;;;;;;4881641;29;45147;-67
2022/10/28 05:53:40;;;;;;;2.28;0.93;;;20.80;53.00;;;;;;4877033;29;45037;-70
2022/10/28 05:56:06;;;;;;;1.15;0.65;;;20.90;53.10;;;;;;4860243;29;45311;-66
2022/10/28 05:58:31;;;;;;;1.50;0.93;;;20.90;53.00;;;;;;4876258;29;45149;-70
2022/10/28 06:00:57;;;;;;;1.23;1.00;;;20.80;53.00;;;;;;4880412;29;45359;-69
2022/10/28 06:03:22;;;;;;;1.70;1.00;;;20.80;53.00;;;;;;4876856;29;45300;-68
2022/10/28 06:05:48;;;;;;;0.70;0.70;;;20.80;53.00;;;;;;4852987;29;45351;-67
2022/10/28 06:08:14;;;;;;;1.38;0.82;;;20.80;53.00;;;;;;4845665;29;46332;-68
2022/10/28 06:10:39;;;;;;;0.70;0.70;;;20.80;53.00;;;;;;4872605;29;45364;-67
2022/10/28 06:13:05;;;;;;;0.70;0.70;;;20.80;53.00;;;;;;4860000;29;46000;-67
2022/10/28 06:15:31;;;;;;;1.00;0.82;;;20.80;53.00;;;;;;4877893;29;45218;-68
2022/10/28 06:17:56;;;;;;;0.93;0.90;;;20.80;53.00;;;;;;4877656;29;45242;-68
2022/10/28 06:20:22;;;;;;;1.17;0.80;;;20.80;53.00;;;;;;4857919;29;46135;-67
2022/10/28 06:22:48;;;;;;;0.60;0.60;;;20.80;53.00;;;;;;4877076;29;45446;-67
2022/10/28 06:25:14;;;;;;;0.82;0.73;;;20.80;53.00;;;;;;4873340;29;45473;-71
2022/10/28 06:27:39;;;;;;;0.77;0.73;;;20.80;53.00;;;;;;4861645;29;45125;-68
2022/10/28 06:30:06;;;;;;;0.98;0.80;;;20.80;53.00;;;;;;4875770;29;46096;-68
2022/10/28 06:32:31;;;;;;;1.10;0.90;;;20.80;53.00;;;;;;4859415;29;45571;-65
2022/10/28 06:34:57;;;;;;;1.15;0.80;;;20.80;53.00;;;;;;4875123;29;46171;-67
2022/10/28 06:37:22;;;;;;;0.85;0.75;;;20.80;53.00;;;;;;4861789;29;45484;-67
2022/10/28 06:39:51;;;;;;;0.50;0.50;;;20.70;53.00;;;;;;4877416;29;45952;-70
2022/10/28 06:42:17;;;;;;;1.00;0.90;;;20.80;53.00;;;;;;4875171;29;45375;-68
2022/10/28 06:44:43;;;;;;;1.15;1.00;;;20.80;53.00;;;;;;4842960;29;45207;-69
2022/10/28 06:47:08;;;;;;;2.72;0.80;;;20.80;53.00;;;;;;4880017;29;44901;-67
2022/10/28 06:49:34;;;;;;;0.80;0.80;;;20.80;53.00;;;;;;4879825;29;45092;-66
2022/10/28 06:51:59;;;;;;;1.15;1.00;;;20.80;53.00;;;;;;4862014;29;45321;-66
2022/10/28 06:54:25;;;;;;;0.68;0.68;;;20.80;53.10;;;;;;4863295;29;45470;-69
2022/10/28 06:56:50;;;;;;;0.98;0.80;;;20.80;53.10;;;;;;4880794;29;46352;-65
2022/10/28 06:59:16;;;;;;;1.15;1.00;;;20.80;53.60;;;;;;4859483;29;45588;-68
2022/10/28 07:01:41;;;;;;;0.70;0.65;;;20.80;53.00;;;;;;4861700;29;45291;-69
2022/10/28 07:04:12;;;;;;;1.42;0.80;;;20.80;53.00;;;;;;4874404;29;47123;-68
2022/10/28 07:06:38;;;;;;;0.85;0.70;;;20.80;52.90;;;;;;4864135;29;45176;-74
2022/10/28 07:09:03;;;;;;;0.77;0.77;;;20.90;52.90;;;;;;4863485;29;46416;-68
2022/10/28 07:11:29;;;;;;;1.05;0.68;;;20.90;52.80;;;;;;4863518;29;45546;-68
2022/10/28 07:13:54;;;;;;;0.90;0.77;;;20.90;52.80;;;;;;4878001;29;45306;-68
2022/10/28 07:16:20;;;;;;;0.75;0.70;;;20.90;52.80;;;;;;4879343;29;45310;-66
2022/10/28 07:18:45;;;;;;;1.63;1.08;;;21.00;52.80;;;;;;4880115;29;46309;-71
2022/10/28 07:21:12;;;;;;;1.35;0.80;;;21.00;52.70;;;;;;4861465;29;45429;-68
2022/10/28 07:23:38;;;;;;;1.27;0.90;;;21.00;52.70;;;;;;4877237;29;45346;-67
2022/10/28 07:26:04;;;;;;;0.63;0.60;;;21.00;52.70;;;;;;4862363;29;44967;-71
2022/10/28 07:28:29;;;;;;;0.93;0.77;;;21.00;52.70;;;;;;4879946;29;45666;-68
2022/10/28 07:31:02;;;;;;;0.98;0.90;;;21.00;52.60;;;;;;4878794;29;45415;-69
2022/10/28 07:33:27;;;;;;;0.83;0.80;;;21.00;52.70;;;;;;4846434;29;45488;-68
2022/10/28 07:35:53;;;;;;;0.93;0.70;;;21.00;52.70;;;;;;4877713;29;45451;-67
2022/10/28 07:38:18;;;;;;;1.23;0.70;;;21.00;52.60;;;;;;4878943;29;45825;-63
2022/10/28 07:40:44;;;;;;;0.73;0.73;;;21.00;52.70;;;;;;4862546;29;45602;-66
2022/10/28 07:43:09;;;;;;;2.55;0.95;;;21.10;52.70;;;;;;4879346;29;45614;-67
2022/10/28 07:45:35;;;;;;;1.85;1.00;;;21.00;52.60;;;;;;4871414;29;45384;-70
2022/10/28 07:48:01;;;;;;;0.95;0.88;;;21.00;52.70;;;;;;4879397;29;46115;-65
2022/10/28 07:50:26;;;;;;;0.80;0.73;;;21.10;52.60;;;;;;4861848;29;45483;-70
2022/10/28 07:52:52;;;;;;;0.93;0.80;;;21.20;52.60;;;;;;4879170;29;45094;-69
2022/10/28 07:55:20;;;;;;;1.05;0.60;;;21.20;52.50;;;;;;4877843;29;45455;-69
2022/10/28 07:57:46;;;;;;;0.77;0.63;;;21.40;52.40;;;;;;4861878;29;46173;-66
2022/10/28 08:00:12;;;;;;;1.58;0.80;;;21.50;52.20;;;;;;4860702;29;45531;-68
2022/10/28 08:02:37;;;;;;;0.88;0.73;;;21.60;52.00;;;;;;4878238;29;44944;-72
2022/10/28 08:05:03;;;;;;;1.17;0.70;;;21.80;51.80;;;;;;4862007;29;45853;-68
2022/10/28 08:07:30;;;;;;;1.23;0.70;;;21.90;51.60;;;;;;4861207;29;45594;-69
2022/10/28 08:09:56;;;;;;;2.63;0.73;;;22.00;51.40;;;;;;4878901;29;45570;-65
2022/10/28 08:12:22;;;;;;;0.60;0.55;;;22.20;51.30;;;;;;4863793;29;44927;-66
2022/10/28 08:14:47;;;;;;;0.52;0.50;;;22.30;51.30;;;;;;4878612;29;46950;-70
2022/10/28 08:17:13;;;;;;;0.47;0.47;;;22.40;51.10;;;;;;4861396;29;45945;-67
2022/10/28 08:19:38;;;;;;;1.55;0.80;;;22.50;51.00;;;;;;4862042;29;44910;-66
2022/10/28 08:22:04;;;;;;;1.25;0.80;;;22.60;51.00;;;;;;4863074;29;45579;-66
2022/10/28 08:24:30;;;;;;;1.20;0.60;;;22.70;50.80;;;;;;4860617;29;45688;-67
2022/10/28 08:26:55;;;;;;;1.23;0.82;;;22.80;50.70;;;;;;4863470;29;45499;-65
2022/10/28 08:29:21;;;;;;;0.90;0.70;;;22.80;50.60;;;;;;4864748;29;45230;-67
2022/10/28 08:31:46;;;;;;;0.73;0.70;;;22.90;50.50;;;;;;4860880;29;45337;-68
2022/10/28 08:34:12;;;;;;;0.52;0.50;;;23.00;50.40;;;;;;4877893;29;45252;-69
2022/10/28 08:36:37;;;;;;;1.10;0.60;;;23.10;50.40;;;;;;4880127;29;46099;-70
2022/10/28 08:39:03;;;;;;;0.63;0.63;;;23.10;50.40;;;;;;4877532;29;45336;-68
2022/10/28 08:41:38;;;;;;;0.68;0.60;;;23.00;50.30;;;;;;4865491;29;45791;-67
2022/10/28 08:44:33;;;;;;;0.88;0.60;;;23.10;50.40;;;;;;4855202;29;45499;-67
2022/10/28 08:47:02;;;;;;;0.95;0.63;;;23.00;50.30;;;;;;4868715;29;45957;-66
2022/10/28 08:49:29;;;;;;;1.75;0.90;;;23.00;50.60;;;;;;4856037;29;44734;-69
2022/10/28 08:52:10;;;;;;;1.02;0.90;;;23.00;50.50;;;;;;4861885;29;45454;-67
2022/10/28 08:54:49;;;;;;;1.17;0.70;;;23.00;50.50;;;;;;4860128;29;45401;-73
2022/10/28 08:57:46;;;;;;;1.23;0.60;;;23.00;50.50;;;;;;4861942;29;46963;-71
2022/10/28 09:00:23;;;;;;;1.10;0.63;;;23.00;50.40;;;;;;4853372;29;45386;-67
2022/10/28 09:03:10;;;;;;;0.57;0.57;;;23.00;50.50;;;;;;4825916;29;45398;-67
2022/10/28 09:05:37;;;;;;;1.00;0.80;;;22.90;50.60;;;;;;4839148;29;44808;-72
2022/10/28 09:08:02;;;;;;;4.45;1.55;;;22.90;50.90;;;;;;4850831;29;45418;-69
2022/10/28 09:10:49;;;;;;;2.22;1.48;;;22.90;51.00;;;;;;4839572;29;45241;-66
2022/10/28 09:13:26;;;;;;;4.75;1.83;;;22.90;51.20;;;;;;4838697;29;45548;-69
2022/10/28 09:15:59;;;;;;;5.13;2.40;;;22.80;51.80;;;;;;4835180;29;45578;-68
2022/10/28 09:18:53;;;;;;;6.53;2.00;;;22.50;52.30;;;;;;4820765;29;46919;-68
2022/10/28 09:21:38;;;;;;;5.88;1.70;;;22.50;52.60;;;;;;4839202;29;45472;-69
2022/10/28 09:24:11;;;;;;;4.82;1.92;;;22.50;52.40;;;;;;4833564;29;44999;-70
2022/10/28 09:27:01;;;;;;;3.38;1.80;;;22.50;52.30;;;;;;4839862;29;45173;-75
2022/10/28 09:29:34;;;;;;;4.18;1.67;;;22.60;52.20;;;;;;4842554;29;45706;-70
2022/10/28 09:32:23;;;;;;;3.03;1.67;;;22.60;52.10;;;;;;4834411;29;45377;-68
2022/10/28 09:34:53;;;;;;;2.78;1.00;;;22.60;52.10;;;;;;4836966;29;45715;-67
2022/10/28 09:37:28;;;;;;;5.00;1.65;;;22.60;51.90;;;;;;4836436;29;45389;-70
2022/10/28 09:39:56;;;;;;;3.30;1.60;;;22.60;51.90;;;;;;4840831;29;47201;-69
2022/10/28 09:42:29;;;;;;;4.50;1.95;;;22.60;51.90;;;;;;4826805;29;45548;-68
2022/10/28 09:45:09;;;;;;;3.85;1.60;;;22.60;51.90;;;;;;4842197;29;45208;-71
2022/10/28 09:47:43;;;;;;;2.65;1.52;;;22.60;51.80;;;;;;4815490;29;45484;-68
2022/10/28 09:50:17;;;;;;;3.67;1.58;;;22.60;51.80;;;;;;4809348;29;46038;-69
2022/10/28 09:53:35;;;;;;;2.97;1.40;;;22.60;51.90;;;;;;4841334;29;45628;-70
2022/10/28 09:56:02;;;;;;;2.25;1.23;;;22.60;51.90;;;;;;4807231;29;45084;-67
2022/10/28 09:58:28;;;;;;;1.80;1.30;;;22.50;51.90;;;;;;4820631;29;45013;-68
2022/10/28 10:00:53;;;;;;;1.83;1.27;;;22.50;51.90;;;;;;4829567;29;45076;-70
2022/10/28 10:03:19;;;;;;;2.58;1.52;;;22.50;51.90;;;;;;4875609;29;45288;-70
2022/10/28 10:05:47;;;;;;;3.30;1.40;;;22.50;51.90;;;;;;4884639;29;45149;-70
2022/10/28 10:08:16;;;;;;;3.10;1.60;;;22.50;51.90;;;;;;4862568;29;45363;-71
2022/10/28 10:10:59;;;;;;;2.70;1.15;;;22.50;51.90;;;;;;4846494;29;45473;-67
2022/10/28 10:13:31;;;;;;;3.33;1.45;;;22.50;51.90;;;;;;4844793;29;45572;-68
2022/10/28 10:16:04;;;;;;;1.98;1.20;;;22.50;51.90;;;;;;4861456;29;45496;-72
2022/10/28 10:18:33;;;;;;;2.72;1.30;;;22.50;51.90;;;;;;4851360;29;44946;-69
2022/10/28 10:20:59;;;;;;;2.13;1.20;;;22.40;51.80;;;;;;4845349;29;46771;-68
2022/10/28 10:23:29;;;;;;;3.67;1.23;;;22.40;51.80;;;;;;4868082;29;45561;-69
2022/10/28 10:26:03;;;;;;;4.03;1.50;;;22.40;51.80;;;;;;4863136;29;44974;-69
2022/10/28 10:28:29;;;;;;;2.88;1.40;;;22.40;51.80;;;;;;4852298;29;45308;-69
2022/10/28 10:31:01;;;;;;;1.80;1.10;;;22.40;51.80;;;;;;4879198;29;45428;-71
2022/10/28 10:33:38;;;;;;;2.25;1.08;;;22.40;51.90;;;;;;4862370;29;45700;-71
2022/10/28 10:36:10;;;;;;;1.95;1.35;;;22.40;51.80;;;;;;4851037;29;45251;-69
2022/10/28 10:38:36;;;;;;;4.43;1.20;;;22.40;52.40;;;;;;4864498;29;46421;-68
2022/10/28 10:41:01;;;;;;;2.88;1.52;;;22.40;51.80;;;;;;4859636;29;45903;-71
2022/10/28 10:43:34;;;;;;;2.60;1.30;;;22.40;51.80;;;;;;4876654;29;45671;-72
2022/10/28 10:46:02;;;;;;;2.13;1.42;;;22.40;51.80;;;;;;4861072;29;44891;-69
2022/10/28 10:48:34;;;;;;;2.90;1.40;;;22.40;51.80;;;;;;4858882;29;45521;-71
2022/10/28 10:51:22;;;;;;;5.28;1.38;;;22.40;51.80;;;;;;4868590;29;45575;-65
2022/10/28 10:53:49;;;;;;;1.67;1.30;;;22.40;51.80;;;;;;4827584;29;45603;-68
2022/10/28 10:56:25;;;;;;;1.95;1.25;;;22.40;51.80;;;;;;4862567;29;44752;-70
2022/10/28 10:58:51;;;;;;;3.40;1.20;;;22.40;51.80;;;;;;4864366;29;45598;-69
2022/10/28 11:01:21;;;;;;;3.60;1.25;;;22.40;51.80;;;;;;4865834;29;45906;-70
2022/10/28 11:03:58;;;;;;;2.55;1.50;;;22.40;51.80;;;;;;4843029;29;44662;-69
2022/10/28 11:06:35;;;;;;;2.40;1.52;;;22.30;51.80;;;;;;4881165;29;45054;-71
2022/10/28 11:09:04;;;;;;;1.83;1.10;;;22.30;51.80;;;;;;4863264;29;45224;-69
2022/10/28 11:11:37;;;;;;;2.95;1.30;;;22.30;51.80;;;;;;4860422;29;45513;-70
2022/10/28 11:14:07;;;;;;;3.40;1.40;;;22.30;51.80;;;;;;4878017;29;45325;-69
2022/10/28 11:16:32;;;;;;;2.20;1.10;;;22.30;51.80;;;;;;4880778;29;45065;-70
2022/10/28 11:18:59;;;;;;;2.03;1.10;;;22.30;51.80;;;;;;4843378;29;45545;-67
2022/10/28 11:21:41;;;;;;;4.32;1.38;;;22.30;51.80;;;;;;4854541;29;46002;-67
2022/10/28 11:24:48;;;;;;;1.33;1.10;;;22.40;51.80;;;;;;4864964;29;45159;-71
2022/10/28 11:27:55;;;;;;;3.92;1.15;;;22.30;51.80;;;;;;4849392;29;45456;-71
2022/10/28 11:30:24;;;;;;;3.25;0.98;;;22.30;51.80;;;;;;4816358;29;44937;-70
2022/10/28 11:33:16;;;;;;;2.80;1.35;;;22.30;51.90;;;;;;4860950;29;46004;-71
2022/10/28 11:36:27;;;;;;;1.25;1.10;;;22.30;51.90;;;;;;4846456;29;46248;-68
2022/10/28 11:38:58;;;;;;;1.63;1.10;;;22.30;51.90;;;;;;4857016;29;45122;-68
2022/10/28 11:41:36;;;;;;;3.08;1.45;;;22.30;51.90;;;;;;4873518;29;45642;-69
2022/10/28 11:44:01;;;;;;;3.42;1.15;;;22.30;51.90;;;;;;4847500;29;45792;-68
2022/10/28 11:47:11;;;;;;;2.25;1.55;;;22.30;51.90;;;;;;4862716;29;45600;-70
2022/10/28 11:49:43;;;;;;;3.35;1.35;;;22.30;51.90;;;;;;4834105;29;45233;-69
2022/10/28 11:52:17;;;;;;;5.40;1.40;;;22.20;51.80;;;;;;4875369;29;44724;-70
2022/10/28 11:54:43;;;;;;;2.65;1.20;;;22.30;51.90;;;;;;4879830;29;46132;-68
2022/10/28 11:57:16;;;;;;;2.20;1.35;;;22.20;51.90;;;;;;4871914;29;44955;-70
2022/10/28 12:00:30;;;;;;;1.23;1.10;;;22.20;51.90;;;;;;4846908;29;45530;-70
2022/10/28 12:03:14;;;;;;;1.27;1.00;;;22.20;51.90;;;;;;4808342;29;45352;-65
2022/10/28 12:05:50;;;;;;;2.20;1.30;;;22.20;52.00;;;;;;4860310;29;45222;-70
2022/10/28 12:08:24;;;;;;;1.50;1.00;;;22.20;52.00;;;;;;4862847;29;45378;-66
2022/10/28 12:10:58;;;;;;;2.03;1.20;;;22.20;52.00;;;;;;4869348;29;45181;-67
2022/10/28 12:13:44;;;;;;;1.67;1.05;;;22.20;52.10;;;;;;4860353;29;45338;-68
2022/10/28 12:16:21;;;;;;;3.00;1.17;;;22.20;52.10;;;;;;4874720;29;45232;-67
2022/10/28 12:18:51;;;;;;;1.58;1.25;;;22.20;52.10;;;;;;4859772;29;44864;-67
2022/10/28 12:21:29;;;;;;;1.60;1.13;;;22.20;52.10;;;;;;4845960;29;44922;-67
2022/10/28 12:23:55;;;;;;;2.15;1.08;;;22.20;52.10;;;;;;4875817;29;45666;-69
2022/10/28 12:26:41;;;;;;;1.50;1.20;;;22.20;52.10;;;;;;4860461;29;45244;-68
2022/10/28 12:29:20;;;;;;;1.80;1.27;;;22.20;52.10;;;;;;4863971;29;44778;-71
2022/10/28 12:31:58;;;;;;;3.38;1.27;;;22.10;52.10;;;;;;4857963;29;45571;-66
2022/10/28 12:34:30;;;;;;;3.45;1.33;;;22.20;52.20;;;;;;4843701;29;45436;-67
2022/10/28 12:37:01;;;;;;;2.60;1.30;;;22.20;52.20;;;;;;4848277;29;46186;-68
2022/10/28 12:39:39;;;;;;;1.25;1.00;;;22.20;52.20;;;;;;4859934;29;45250;-65
2022/10/28 12:42:19;;;;;;;1.65;1.13;;;22.20;52.10;;;;;;4861812;29;45599;-67
2022/10/28 12:44:45;;;;;;;1.27;1.00;;;22.20;52.20;;;;;;4876946;29;45130;-66
2022/10/28 12:47:26;;;;;;;2.88;1.55;;;22.10;52.10;;;;;;4861734;29;46017;-67
2022/10/28 12:50:13;;;;;;;2.38;1.13;;;22.20;52.20;;;;;;4856930;29;45341;-70
2022/10/28 12:52:59;;;;;;;1.98;1.50;;;22.20;52.20;;;;;;4860179;29;45576;-67
2022/10/28 12:55:36;;;;;;;1.30;1.20;;;22.10;52.20;;;;;;4876171;29;44740;-66
2022/10/28 12:58:09;;;;;;;2.95;1.00;;;22.10;52.20;;;;;;4843362;29;46206;-64
2022/10/28 13:00:36;;;;;;;2.10;1.38;;;22.20;52.20;;;;;;4860069;29;45482;-62
2022/10/28 13:03:06;;;;;;;2.83;1.23;;;22.20;52.10;;;;;;4863409;29;45401;-62
2022/10/28 13:06:08;;;;;;;3.67;1.00;;;22.20;52.00;;;;;;4883487;29;46296;-62
2022/10/28 13:09:00;;;;;;;1.45;1.10;;;22.20;52.60;;;;;;4868375;29;46156;-63
2022/10/28 13:11:44;;;;;;;1.98;1.00;;;22.20;51.90;;;;;;4865773;29;45342;-62
2022/10/28 13:14:17;;;;;;;1.23;0.90;;;22.20;51.90;;;;;;4882129;29;45490;-62
2022/10/28 13:16:52;;;;;;;;;;;22.30;52.60;;;;;;4885533;29;44651;-63
2022/10/28 13:19:59;;;;;;;1.00;0.75;;;22.30;52.10;;;;;;4869222;29;46033;-62
2022/10/28 13:23:06;;;;;;;1.40;0.95;;;22.30;52.10;;;;;;4865637;29;45305;-62
2022/10/28 13:25:56;;;;;;;1.42;0.85;;;22.30;52.00;;;;;;4782142;29;45659;-61
2022/10/28 13:28:21;;;;;;;2.35;1.20;;;22.40;52.10;;;;;;4876912;29;45506;-63
2022/10/28 13:30:58;;;;;;;3.75;1.27;;;22.40;52.10;;;;;;4867369;29;45978;-62
2022/10/28 13:33:25;;;;;;;2.90;1.40;;;22.40;52.20;;;;;;4868842;29;45213;-63
2022/10/28 13:35:51;;;;;;;3.13;1.23;;;22.50;52.20;;;;;;4870435;29;45308;-62
2022/10/28 13:38:22;;;;;;;2.50;0.90;;;22.50;52.20;;;;;;4879721;29;45857;-61
2022/10/28 13:40:57;;;;;;;3.80;1.10;;;22.60;52.10;;;;;;4866682;29;45631;-63
2022/10/28 13:43:47;;;;;;;4.97;1.10;;;22.60;52.10;;;;;;4884469;29;45402;-62
2022/10/28 13:46:33;;;;;;;3.35;1.05;;;22.70;52.20;;;;;;4879511;29;46297;-63
2022/10/28 13:49:23;;;;;;;4.82;1.13;;;22.70;52.10;;;;;;4872909;29;44919;-63
2022/10/28 13:51:50;;;;;;;3.55;1.35;;;22.80;52.20;;;;;;4887944;29;46256;-62
2022/10/28 13:54:23;;;;;;;5.55;1.08;;;22.80;52.00;;;;;;4867382;29;45485;-62
2022/10/28 13:56:48;;;;;;;;;;;22.80;52.00;;;;;;4870710;29;45217;-62
2022/10/28 13:59:16;;;;;;;4.32;1.10;;;22.80;52.20;;;;;;4868922;29;45584;-62
2022/10/28 14:01:58;;;;;;;4.97;1.10;;;22.80;52.00;;;;;;4886204;29;45263;-63
2022/10/28 14:04:34;;;;;;;4.65;1.08;;;22.90;52.10;;;;;;4866288;29;45257;-61
2022/10/28 14:07:05;;;;;;;4.20;1.30;;;22.90;52.10;;;;;;4866266;29;44809;-62
2022/10/28 14:09:32;;;;;;;3.85;1.17;;;22.90;52.10;;;;;;4864554;29;45138;-61
2022/10/28 14:12:10;;;;;;;5.32;1.25;;;22.90;51.90;;;;;;4871621;29;45132;-61
2022/10/28 14:14:36;;;;;;;9.00;1.10;;;22.90;51.90;;;;;;4881878;29;45556;-61
2022/10/28 14:17:01;;;;;;;3.22;1.23;;;22.90;51.90;;;;;;4877585;29;45144;-61
2022/10/28 14:19:27;;;;;;;6.10;1.50;;;22.90;51.90;;;;;;4864662;29;45511;-62
2022/10/28 14:22:05;;;;;;;4.18;1.20;;;23.00;51.80;;;;;;4870694;29;46007;-63
2022/10/28 14:24:30;;;;;;;4.53;1.10;;;23.00;51.80;;;;;;4882937;29;45666;-64
2022/10/28 14:27:05;;;;;;;9.40;1.40;;;23.00;51.80;;;;;;4886133;29;45412;-63
2022/10/28 14:29:51;;;;;;;4.63;1.23;;;23.00;51.80;;;;;;4883683;29;45462;-63
2022/10/28 14:32:32;;;;;;;6.97;1.00;;;23.00;51.80;;;;;;4869880;29;45260;-63
2022/10/28 14:35:02;;;;;;;2.70;1.08;;;23.10;52.00;;;;;;4881054;29;45292;-63
2022/10/28 14:37:55;;;;;;;8.32;1.45;;;23.00;52.00;;;;;;4877319;29;45299;-63
2022/10/28 14:40:22;;;;;;;;;;;23.10;52.00;;;;;;4879886;29;44688;-64
2022/10/28 14:43:14;;;;;;;3.70;1.30;;;23.10;52.10;;;;;;4884062;29;46241;-64
2022/10/28 14:45:47;;;;;;;4.90;0.98;;;23.10;52.00;;;;;;4848998;29;45355;-62
2022/10/28 14:48:31;;;;;;;8.48;1.35;;;23.10;51.90;;;;;;4863186;29;44972;-62
2022/10/28 14:50:57;;;;;;;2.75;1.20;;;23.10;52.10;;;;;;4887814;29;45290;-63
2022/10/28 14:53:25;;;;;;;4.82;1.33;;;23.10;52.10;;;;;;4866149;29;45603;-62
2022/10/28 14:56:02;;;;;;;7.32;1.13;;;23.10;52.10;;;;;;4867337;29;44978;-63
2022/10/28 14:58:29;;;;;;;4.93;1.40;;;23.10;52.10;;;;;;4867797;29;45253;-62
2022/10/28 15:01:14;;;;;;;5.22;1.05;;;23.10;52.10;;;;;;4879904;29;44813;-62
2022/10/28 15:03:39;;;;;;;6.05;1.17;;;23.10;52.10;;;;;;4859994;29;47292;-62
2022/10/28 15:06:23;;;;;;;3.78;1.27;;;23.10;52.10;;;;;;4861770;29;45492;-62
2022/10/28 15:08:49;;;;;;;2.90;1.20;;;23.10;52.10;;;;;;4864978;29;45483;-60
2022/10/28 15:11:16;;;;;;;5.18;1.40;;;23.10;52.00;;;;;;4862098;29;46217;-63
2022/10/28 15:13:41;;;;;;;3.42;1.15;;;23.10;52.10;;;;;;4867194;29;46930;-60
2022/10/28 15:16:18;;;;;;;5.78;1.65;;;23.10;52.10;;;;;;4866146;29;44683;-62
2022/10/28 15:18:48;;;;;;;6.00;1.35;;;23.10;51.90;;;;;;4865141;29;45473;-62
2022/10/28 15:21:16;;;;;;;5.93;1.20;;;23.10;52.00;;;;;;4883691;29;45719;-62
2022/10/28 15:23:42;;;;;;;5.07;1.20;;;23.10;52.10;;;;;;4863547;29;45914;-62
2022/10/28 15:26:12;;;;;;;6.28;1.30;;;23.00;52.10;;;;;;4864153;29;45255;-62
2022/10/28 15:28:38;;;;;;;4.57;1.13;;;23.00;52.10;;;;;;4878510;29;45107;-62
2022/10/28 15:31:04;;;;;;;5.25;1.23;;;23.00;52.20;;;;;;4852691;29;44747;-62
2022/10/28 15:33:36;;;;;;;7.50;1.33;;;23.00;52.20;;;;;;4869004;29;46255;-63
2022/10/28 15:36:11;;;;;;;4.20;1.37;;;23.00;52.30;;;;;;4863386;29;45130;-62
2022/10/28 15:38:57;;;;;;;2.38;1.20;;;23.00;52.30;;;;;;4879949;29;45844;-63
2022/10/28 15:41:28;;;;;;;4.85;1.45;;;23.00;52.20;;;;;;4863472;29;45398;-62
2022/10/28 15:44:03;;;;;;;6.93;1.27;;;22.90;52.20;;;;;;4881610;29;45694;-62
2022/10/28 15:46:30;;;;;;;4.40;1.45;;;23.00;52.30;;;;;;4883018;29;44696;-62
2022/10/28 15:48:57;;;;;;;3.60;1.17;;;22.90;52.30;;;;;;4862141;29;44851;-62
2022/10/28 15:51:22;;;;;;;5.32;1.17;;;22.90;52.30;;;;;;4864782;29;45580;-62
2022/10/28 15:53:55;;;;;;;4.15;1.15;;;22.90;52.30;;;;;;4860518;29;46032;-63
2022/10/28 15:56:24;;;;;;;;;;;22.90;52.30;;;;;;4844645;29;45255;-63
2022/10/28 15:59:03;;;;;;;1.73;0.88;;;22.90;52.40;;;;;;4860660;29;44788;-63
2022/10/28 16:01:29;;;;;;;4.20;1.15;;;22.90;52.40;;;;;;4864463;29;44821;-63
2022/10/28 16:03:55;;;;;;;5.13;1.30;;;22.90;52.30;;;;;;4876661;29;45229;-62
2022/10/28 16:06:37;;;;;;;4.57;1.30;;;22.90;52.40;;;;;;4877106;29;44981;-61
2022/10/28 16:09:05;;;;;;;4.85;1.17;;;22.90;52.40;;;;;;4860405;29;46947;-62